DLH770 EDDF-OMDB
Flight info
| Callsign | DLH770 |
|---|---|
| Flight time | N/A |
| Altitude | 37000 |
| Route | TOBAK2D/07C TOBAK N858 SWALM T201 TAMEB DCT NEVKO DCT OMELO DCT VOZ/N0464F390 DCT PISAM DCT TEKNO DCT KEROP DCT NISVA DCT VANET DCT NIKTI DCT LMO DCT RIKSO DCT YOYYO UG80 BANRO DCT VANZA DCT LAKTO L560 SILKA M872 BDB Y214 RAPMA DCT KUVSO DCT KATIT DCT PEKEM M628 RIGIL G783 ELUDA/N0489F350 G783 ASPED Q308 KIPOK Q568 IMPED |
| Aircraft | A333/H-SDE3GHIJ2J3J5M1RVWXY/LB2D1 |
Departure
| Time | 2026-05-01 12:33 |
|---|---|
| Airport | Frankfurt Main Airport (EDDF) |
Arrival
| Time | N/A |
|---|---|
| Airport | Dubai International Airport (OMDB) |
| Time | Latitude | Longitude | Altitude | Speed | Heading |
|---|---|---|---|---|---|
| 2026-05-01 11:22 | 50.04729 | 8.56272 | 368 ft | 0 kts | 339° |
| 2026-05-01 11:33 | 50.04719 | 8.56302 | 371 ft | 0 kts | 320° |
| 2026-05-01 11:34 | 50.04726 | 8.56273 | 371 ft | 0 kts | 339° |
| 2026-05-01 12:13 | 50.04725 | 8.56274 | 371 ft | 0 kts | 339° |
| 2026-05-01 12:13 | 50.04713 | 8.56282 | 371 ft | 2 kts | 331° |
| 2026-05-01 12:13 | 50.04700 | 8.56294 | 371 ft | 2 kts | 320° |
| 2026-05-01 12:14 | 50.04689 | 8.56310 | 371 ft | 2 kts | 311° |
| 2026-05-01 12:14 | 50.04680 | 8.56328 | 371 ft | 2 kts | 301° |
| 2026-05-01 12:14 | 50.04672 | 8.56349 | 371 ft | 2 kts | 291° |
| 2026-05-01 12:14 | 50.04668 | 8.56371 | 372 ft | 2 kts | 282° |
| 2026-05-01 12:15 | 50.04665 | 8.56394 | 372 ft | 2 kts | 272° |
| 2026-05-01 12:15 | 50.04665 | 8.56417 | 373 ft | 2 kts | 262° |
| 2026-05-01 12:15 | 50.04668 | 8.56439 | 373 ft | 2 kts | 253° |
| 2026-05-01 12:15 | 50.04670 | 8.56451 | 373 ft | 0 kts | 249° |
| 2026-05-01 12:18 | 50.04670 | 8.56450 | 373 ft | 1 kts | 249° |
| 2026-05-01 12:19 | 50.04657 | 8.56394 | 372 ft | 9 kts | 249° |
| 2026-05-01 12:19 | 50.04627 | 8.56272 | 371 ft | 5 kts | 249° |
| 2026-05-01 12:19 | 50.04627 | 8.56271 | 371 ft | 0 kts | 249° |
| 2026-05-01 12:21 | 50.04624 | 8.56259 | 371 ft | 5 kts | 249° |
| 2026-05-01 12:21 | 50.04619 | 8.56238 | 371 ft | 0 kts | 249° |
| 2026-05-01 12:23 | 50.04618 | 8.56233 | 371 ft | 2 kts | 249° |
| 2026-05-01 12:24 | 50.04615 | 8.56219 | 371 ft | 0 kts | 249° |
| 2026-05-01 12:25 | 50.04615 | 8.56218 | 371 ft | 1 kts | 249° |
| 2026-05-01 12:25 | 50.04573 | 8.56045 | 371 ft | 12 kts | 249° |
| 2026-05-01 12:25 | 50.04516 | 8.55954 | 371 ft | 12 kts | 200° |
| 2026-05-01 12:26 | 50.04406 | 8.55911 | 369 ft | 23 kts | 180° |
| 2026-05-01 12:26 | 50.04159 | 8.55603 | 362 ft | 34 kts | 249° |
| 2026-05-01 12:26 | 50.04065 | 8.55211 | 360 ft | 43 kts | 249° |
| 2026-05-01 12:27 | 50.03948 | 8.54727 | 351 ft | 48 kts | 248° |
| 2026-05-01 12:27 | 50.03694 | 8.53790 | 355 ft | 43 kts | 249° |
| 2026-05-01 12:28 | 50.03486 | 8.52932 | 347 ft | 20 kts | 248° |
| 2026-05-01 12:28 | 50.03457 | 8.52824 | 347 ft | 0 kts | 248° |
| 2026-05-01 12:29 | 50.03448 | 8.52791 | 346 ft | 7 kts | 248° |
| 2026-05-01 12:29 | 50.03440 | 8.52757 | 346 ft | 0 kts | 248° |
| 2026-05-01 12:31 | 50.03437 | 8.52746 | 346 ft | 2 kts | 250° |
| 2026-05-01 12:31 | 50.03437 | 8.52745 | 346 ft | 0 kts | 250° |
| 2026-05-01 12:31 | 50.03432 | 8.52725 | 346 ft | 5 kts | 250° |
| 2026-05-01 12:31 | 50.03406 | 8.52640 | 346 ft | 10 kts | 237° |
| 2026-05-01 12:32 | 50.03378 | 8.52602 | 345 ft | 11 kts | 202° |
| 2026-05-01 12:32 | 50.02684 | 8.52601 | 334 ft | 110 kts | 179° |
| 2026-05-01 12:32 | 50.01726 | 8.52616 | 351 ft | 160 kts | 176° |
| 2026-05-01 12:33 | 50.00586 | 8.52634 | 916 ft | 162 kts | 173° |
| 2026-05-01 12:33 | 49.99433 | 8.52641 | 1466 ft | 171 kts | 174° |
| 2026-05-01 12:33 | 49.98226 | 8.52646 | 2097 ft | 174 kts | 175° |
| 2026-05-01 12:33 | 49.97042 | 8.52538 | 2534 ft | 179 kts | 193° |
| 2026-05-01 12:34 | 49.95983 | 8.51300 | 2790 ft | 203 kts | 232° |
| 2026-05-01 12:34 | 49.95261 | 8.49311 | 3125 ft | 213 kts | 235° |
| 2026-05-01 12:34 | 49.94356 | 8.47472 | 3424 ft | 222 kts | 221° |
| 2026-05-01 12:34 | 49.93240 | 8.45644 | 3756 ft | 240 kts | 222° |
| 2026-05-01 12:35 | 49.92013 | 8.43723 | 4234 ft | 255 kts | 220° |
| 2026-05-01 12:35 | 49.90694 | 8.41747 | 4706 ft | 271 kts | 220° |
| 2026-05-01 12:35 | 49.89322 | 8.39692 | 5429 ft | 277 kts | 220° |
| 2026-05-01 12:35 | 49.88022 | 8.37519 | 6321 ft | 277 kts | 233° |
| 2026-05-01 12:36 | 49.87328 | 8.34731 | 7035 ft | 286 kts | 260° |
| 2026-05-01 12:36 | 49.87496 | 8.31621 | 7734 ft | 294 kts | 287° |
| 2026-05-01 12:36 | 49.88506 | 8.28862 | 8422 ft | 298 kts | 308° |
| 2026-05-01 12:36 | 49.89771 | 8.26292 | 9130 ft | 301 kts | 305° |
| 2026-05-01 12:37 | 49.90946 | 8.23587 | 9836 ft | 305 kts | 303° |
| 2026-05-01 12:37 | 49.92141 | 8.20856 | 10511 ft | 308 kts | 310° |
| 2026-05-01 12:37 | 49.93851 | 8.18765 | 10893 ft | 320 kts | 336° |
| 2026-05-01 12:37 | 49.96055 | 8.17878 | 11218 ft | 332 kts | 359° |
| 2026-05-01 12:38 | 49.98376 | 8.18395 | 11473 ft | 345 kts | 21° |
| 2026-05-01 12:38 | 50.00518 | 8.20163 | 11746 ft | 358 kts | 33° |
| 2026-05-01 12:38 | 50.02785 | 8.22007 | 12260 ft | 368 kts | 28° |
| 2026-05-01 12:38 | 50.05111 | 8.23682 | 12991 ft | 370 kts | 27° |
| 2026-05-01 12:39 | 50.07473 | 8.25341 | 13672 ft | 373 kts | 26° |
| 2026-05-01 12:39 | 50.09875 | 8.27020 | 14300 ft | 377 kts | 26° |
| 2026-05-01 12:39 | 50.12288 | 8.28707 | 14916 ft | 380 kts | 26° |
| 2026-05-01 12:39 | 50.14722 | 8.30410 | 15554 ft | 383 kts | 26° |
| 2026-05-01 12:40 | 50.17156 | 8.32114 | 16164 ft | 387 kts | 26° |
| 2026-05-01 12:40 | 50.19604 | 8.33831 | 16761 ft | 390 kts | 26° |
| 2026-05-01 12:40 | 50.22084 | 8.35572 | 17352 ft | 393 kts | 26° |
| 2026-05-01 12:40 | 50.24617 | 8.37353 | 17966 ft | 395 kts | 26° |
| 2026-05-01 12:41 | 50.27117 | 8.39112 | 18527 ft | 398 kts | 26° |
| 2026-05-01 12:41 | 50.29574 | 8.41202 | 19041 ft | 398 kts | 38° |
| 2026-05-01 12:41 | 50.31661 | 8.44056 | 19581 ft | 400 kts | 43° |
| 2026-05-01 12:41 | 50.33765 | 8.46969 | 20119 ft | 403 kts | 43° |
| 2026-05-01 12:42 | 50.35880 | 8.49904 | 20627 ft | 406 kts | 42° |
| 2026-05-01 12:42 | 50.37994 | 8.52840 | 21109 ft | 409 kts | 42° |
| 2026-05-01 12:42 | 50.40128 | 8.55807 | 21592 ft | 411 kts | 42° |
| 2026-05-01 12:42 | 50.42302 | 8.58833 | 22075 ft | 414 kts | 42° |
| 2026-05-01 12:43 | 50.44459 | 8.61839 | 22545 ft | 417 kts | 41° |
| 2026-05-01 12:43 | 50.46703 | 8.64788 | 23008 ft | 420 kts | 40° |
| 2026-05-01 12:43 | 50.48965 | 8.67764 | 23477 ft | 422 kts | 41° |
| 2026-05-01 12:43 | 50.51235 | 8.70750 | 23924 ft | 425 kts | 41° |
| 2026-05-01 12:44 | 50.53510 | 8.73746 | 24368 ft | 427 kts | 41° |
| 2026-05-01 12:44 | 50.55808 | 8.76786 | 24798 ft | 429 kts | 41° |
| 2026-05-01 12:44 | 50.59255 | 8.84527 | 25583 ft | 434 kts | 61° |
| 2026-05-01 12:45 | 50.62165 | 8.92904 | 26384 ft | 439 kts | 61° |
| 2026-05-01 12:45 | 50.63653 | 8.97188 | 26773 ft | 441 kts | 61° |
| 2026-05-01 12:45 | 50.65120 | 9.01417 | 27131 ft | 444 kts | 61° |
| 2026-05-01 12:46 | 50.66610 | 9.05722 | 27516 ft | 447 kts | 61° |
| 2026-05-01 12:46 | 50.68123 | 9.10099 | 27894 ft | 449 kts | 61° |
| 2026-05-01 12:46 | 50.69622 | 9.14444 | 28266 ft | 452 kts | 61° |
| 2026-05-01 12:46 | 50.71144 | 9.18887 | 28630 ft | 454 kts | 63° |
| 2026-05-01 12:47 | 50.72209 | 9.23605 | 28908 ft | 457 kts | 76° |
| 2026-05-01 12:47 | 50.72948 | 9.28574 | 29251 ft | 459 kts | 76° |
| 2026-05-01 12:47 | 50.73684 | 9.33469 | 29687 ft | 458 kts | 76° |
| 2026-05-01 12:47 | 50.74424 | 9.38380 | 30174 ft | 457 kts | 76° |
| 2026-05-01 12:48 | 50.75158 | 9.43267 | 30648 ft | 456 kts | 76° |
| 2026-05-01 12:48 | 50.75896 | 9.48194 | 31063 ft | 456 kts | 76° |
| 2026-05-01 12:48 | 50.76624 | 9.53064 | 31484 ft | 454 kts | 75° |
| 2026-05-01 12:48 | 50.77357 | 9.57988 | 31865 ft | 454 kts | 75° |
| 2026-05-01 12:49 | 50.78081 | 9.62867 | 32212 ft | 454 kts | 75° |
| 2026-05-01 12:49 | 50.78800 | 9.67721 | 32592 ft | 453 kts | 76° |
| 2026-05-01 12:49 | 50.79527 | 9.72645 | 32961 ft | 453 kts | 76° |
| 2026-05-01 12:49 | 50.80239 | 9.77471 | 33290 ft | 452 kts | 76° |
| 2026-05-01 12:50 | 50.80955 | 9.82336 | 33619 ft | 452 kts | 76° |
| 2026-05-01 12:50 | 50.81672 | 9.87223 | 33927 ft | 452 kts | 76° |
| 2026-05-01 12:50 | 50.82384 | 9.92101 | 34260 ft | 452 kts | 76° |
| 2026-05-01 12:50 | 50.83090 | 9.96944 | 34601 ft | 451 kts | 76° |
| 2026-05-01 12:51 | 50.83794 | 10.01788 | 34971 ft | 449 kts | 76° |
| 2026-05-01 12:51 | 50.84420 | 10.06667 | 35313 ft | 449 kts | 82° |
| 2026-05-01 12:51 | 50.84140 | 10.16608 | 35872 ft | 451 kts | 94° |
| 2026-05-01 12:52 | 50.83850 | 10.21567 | 36166 ft | 450 kts | 94° |
| 2026-05-01 12:52 | 50.83273 | 10.31486 | 36697 ft | 450 kts | 94° |
| 2026-05-01 12:52 | 50.82984 | 10.36418 | 36957 ft | 449 kts | 93° |
| 2026-05-01 12:53 | 50.82400 | 10.46267 | 37371 ft | 444 kts | 93° |
| 2026-05-01 12:53 | 50.82109 | 10.51141 | 37305 ft | 438 kts | 93° |
| 2026-05-01 12:54 | 50.81527 | 10.60801 | 37351 ft | 446 kts | 93° |
| 2026-05-01 12:54 | 50.80917 | 10.75551 | 37344 ft | 445 kts | 83° |
| 2026-05-01 12:55 | 50.82280 | 10.90133 | 37365 ft | 443 kts | 80° |
| 2026-05-01 12:56 | 50.83130 | 10.99856 | 37361 ft | 442 kts | 80° |
| 2026-05-01 12:56 | 50.83970 | 11.09616 | 37362 ft | 442 kts | 81° |
| 2026-05-01 12:57 | 50.84795 | 11.19294 | 37351 ft | 443 kts | 81° |
| 2026-05-01 12:57 | 50.85811 | 11.34032 | 37344 ft | 443 kts | 88° |
| 2026-05-01 12:58 | 50.85807 | 11.43859 | 37345 ft | 444 kts | 87° |
| 2026-05-01 12:59 | 50.85840 | 11.58552 | 37362 ft | 442 kts | 87° |
| 2026-05-01 12:59 | 50.85857 | 11.73266 | 37359 ft | 442 kts | 88° |
| 2026-05-01 13:00 | 50.85856 | 11.87898 | 37361 ft | 440 kts | 88° |
| 2026-05-01 13:01 | 50.85838 | 12.02494 | 37365 ft | 439 kts | 88° |
| 2026-05-01 13:02 | 50.85801 | 12.17104 | 37369 ft | 441 kts | 88° |
| 2026-05-01 13:07 | 50.84979 | 13.23574 | 37362 ft | 437 kts | 88° |
| 2026-05-01 13:08 | 50.84857 | 13.33242 | 37360 ft | 438 kts | 88° |
| 2026-05-01 13:08 | 50.84727 | 13.42904 | 37358 ft | 437 kts | 88° |
| 2026-05-01 13:09 | 50.84589 | 13.52570 | 37353 ft | 436 kts | 88° |
| 2026-05-01 13:09 | 50.84441 | 13.62239 | 37355 ft | 436 kts | 88° |
| 2026-05-01 13:10 | 50.84288 | 13.71874 | 37359 ft | 435 kts | 89° |
| 2026-05-01 13:10 | 50.84124 | 13.81568 | 37363 ft | 435 kts | 89° |
| 2026-05-01 13:11 | 50.83122 | 13.91091 | 37381 ft | 442 kts | 106° |
| 2026-05-01 13:11 | 50.80099 | 13.99737 | 37341 ft | 452 kts | 123° |
| 2026-05-01 13:12 | 50.75563 | 14.06687 | 37363 ft | 460 kts | 142° |
| 2026-05-01 13:12 | 50.69658 | 14.11045 | 37372 ft | 469 kts | 162° |
| 2026-05-01 13:13 | 50.63378 | 14.14172 | 37367 ft | 465 kts | 154° |
| 2026-05-01 13:13 | 50.57407 | 14.18165 | 37351 ft | 466 kts | 153° |
| 2026-05-01 13:14 | 50.51390 | 14.22250 | 37347 ft | 466 kts | 153° |
| 2026-05-01 13:14 | 50.45411 | 14.26308 | 37346 ft | 466 kts | 153° |
| 2026-05-01 13:15 | 50.39391 | 14.30379 | 37352 ft | 466 kts | 153° |
| 2026-05-01 13:15 | 50.33397 | 14.34423 | 37369 ft | 466 kts | 153° |
| 2026-05-01 13:16 | 50.27401 | 14.38458 | 37370 ft | 466 kts | 153° |
| 2026-05-01 13:16 | 50.21402 | 14.42482 | 37362 ft | 466 kts | 153° |
| 2026-05-01 13:17 | 50.09390 | 14.50510 | 37370 ft | 466 kts | 153° |
| 2026-05-01 13:18 | 50.03360 | 14.54521 | 37218 ft | 463 kts | 153° |
| 2026-05-01 13:18 | 50.00368 | 14.56510 | 37377 ft | 467 kts | 153° |
| 2026-05-01 13:18 | 49.97339 | 14.58521 | 37044 ft | 475 kts | 153° |
| 2026-05-01 13:18 | 49.94291 | 14.60535 | 37546 ft | 465 kts | 153° |
| 2026-05-01 13:19 | 49.91259 | 14.62544 | 37249 ft | 475 kts | 153° |
| 2026-05-01 13:19 | 49.88235 | 14.64539 | 37404 ft | 468 kts | 153° |
| 2026-05-01 13:20 | 49.79150 | 14.70523 | 37382 ft | 469 kts | 153° |
| 2026-05-01 13:20 | 49.73089 | 14.74503 | 37359 ft | 469 kts | 153° |
| 2026-05-01 13:21 | 49.64001 | 14.80449 | 37348 ft | 471 kts | 153° |
| 2026-05-01 13:21 | 49.57925 | 14.84409 | 37347 ft | 471 kts | 153° |
| 2026-05-01 13:22 | 49.51839 | 14.88345 | 37345 ft | 471 kts | 153° |
| 2026-05-01 13:22 | 49.46094 | 14.93140 | 37350 ft | 467 kts | 146° |
| 2026-05-01 13:23 | 49.40349 | 14.97895 | 37343 ft | 468 kts | 148° |
| 2026-05-01 13:23 | 49.34532 | 15.02604 | 37339 ft | 469 kts | 148° |
| 2026-05-01 13:24 | 49.28735 | 15.07273 | 37336 ft | 469 kts | 148° |
| 2026-05-01 13:25 | 49.19988 | 15.14293 | 37336 ft | 468 kts | 147° |
| 2026-05-01 13:25 | 49.14186 | 15.18933 | 37333 ft | 469 kts | 147° |
| 2026-05-01 13:26 | 49.08361 | 15.23579 | 37329 ft | 470 kts | 147° |
| 2026-05-01 13:26 | 49.02532 | 15.28218 | 37331 ft | 470 kts | 147° |
| 2026-05-01 13:27 | 48.96699 | 15.32845 | 37333 ft | 469 kts | 147° |
| 2026-05-01 13:27 | 48.88242 | 15.40387 | 37325 ft | 458 kts | 133° |
| 2026-05-01 13:28 | 48.81836 | 15.50985 | 37317 ft | 454 kts | 126° |
| 2026-05-01 13:29 | 48.73212 | 15.65202 | 37317 ft | 454 kts | 127° |
| 2026-05-01 13:31 | 48.60256 | 15.86360 | 37330 ft | 453 kts | 127° |
| 2026-05-01 13:32 | 48.49401 | 16.03957 | 37321 ft | 455 kts | 127° |
| 2026-05-01 13:33 | 48.38553 | 16.21423 | 37326 ft | 454 kts | 126° |
| 2026-05-01 13:34 | 48.29835 | 16.35375 | 37331 ft | 455 kts | 126° |
| 2026-05-01 13:35 | 48.23296 | 16.45790 | 37333 ft | 454 kts | 126° |
| 2026-05-01 13:36 | 48.16763 | 16.56156 | 37339 ft | 454 kts | 126° |
| 2026-05-01 13:36 | 48.10195 | 16.66534 | 37349 ft | 454 kts | 127° |
| 2026-05-01 13:37 | 48.05824 | 16.73422 | 37347 ft | 456 kts | 127° |
| 2026-05-01 13:37 | 48.01450 | 16.80292 | 37347 ft | 455 kts | 127° |
| 2026-05-01 13:38 | 47.94849 | 16.90626 | 37348 ft | 454 kts | 126° |
| 2026-05-01 13:39 | 47.90500 | 16.97414 | 37346 ft | 454 kts | 126° |
| 2026-05-01 13:39 | 47.86108 | 17.04252 | 37325 ft | 453 kts | 126° |
| 2026-05-01 13:40 | 47.81711 | 17.11078 | 37321 ft | 453 kts | 126° |
| 2026-05-01 13:40 | 47.77321 | 17.17875 | 37314 ft | 456 kts | 126° |
| 2026-05-01 13:41 | 47.72919 | 17.24673 | 37307 ft | 454 kts | 126° |
| 2026-05-01 13:41 | 47.68525 | 17.31442 | 37308 ft | 453 kts | 126° |
| 2026-05-01 13:42 | 47.64100 | 17.38240 | 37305 ft | 454 kts | 126° |
| 2026-05-01 13:42 | 47.59765 | 17.45061 | 37317 ft | 451 kts | 122° |
| 2026-05-01 13:43 | 47.55605 | 17.52081 | 37305 ft | 453 kts | 123° |
| 2026-05-01 13:43 | 47.51396 | 17.59040 | 37311 ft | 452 kts | 123° |
| 2026-05-01 13:44 | 47.47181 | 17.65980 | 37316 ft | 452 kts | 124° |
| 2026-05-01 13:44 | 47.42932 | 17.72956 | 37315 ft | 454 kts | 124° |
| 2026-05-01 13:45 | 47.38702 | 17.79882 | 37319 ft | 452 kts | 124° |
| 2026-05-01 13:45 | 47.34486 | 17.86770 | 37309 ft | 453 kts | 124° |
| 2026-05-01 13:46 | 47.30254 | 17.93662 | 37299 ft | 451 kts | 124° |
| 2026-05-01 13:46 | 47.25992 | 18.00588 | 37299 ft | 454 kts | 124° |
| 2026-05-01 13:47 | 47.21735 | 18.07486 | 37308 ft | 454 kts | 124° |
| 2026-05-01 13:47 | 47.17495 | 18.14338 | 37298 ft | 452 kts | 124° |
| 2026-05-01 13:48 | 47.13234 | 18.21211 | 37312 ft | 453 kts | 124° |
| 2026-05-01 13:48 | 47.08962 | 18.28082 | 37319 ft | 453 kts | 124° |
| 2026-05-01 13:49 | 47.04685 | 18.34938 | 37307 ft | 452 kts | 124° |
| 2026-05-01 13:49 | 47.00414 | 18.41775 | 37310 ft | 453 kts | 124° |
| 2026-05-01 13:50 | 46.96134 | 18.48603 | 37298 ft | 452 kts | 124° |
| 2026-05-01 13:50 | 46.91858 | 18.55412 | 37301 ft | 455 kts | 124° |
| 2026-05-01 13:51 | 46.87555 | 18.62243 | 37295 ft | 454 kts | 124° |
| 2026-05-01 13:51 | 46.83254 | 18.69056 | 37267 ft | 455 kts | 125° |
| 2026-05-01 13:52 | 46.78927 | 18.75890 | 37259 ft | 456 kts | 125° |
| 2026-05-01 13:52 | 46.74574 | 18.82749 | 37259 ft | 455 kts | 125° |
| 2026-05-01 13:53 | 46.70258 | 18.89533 | 37274 ft | 455 kts | 125° |
| 2026-05-01 13:53 | 46.63715 | 18.99785 | 37278 ft | 458 kts | 125° |
| 2026-05-01 13:54 | 46.59378 | 19.06556 | 37298 ft | 455 kts | 125° |
| 2026-05-01 13:54 | 46.55020 | 19.13346 | 37281 ft | 455 kts | 125° |
| 2026-05-01 13:55 | 46.50670 | 19.20106 | 37279 ft | 458 kts | 125° |
| 2026-05-01 13:55 | 46.46310 | 19.26864 | 37283 ft | 457 kts | 125° |
| 2026-05-01 13:56 | 46.41908 | 19.33668 | 37273 ft | 458 kts | 125° |
| 2026-05-01 13:56 | 46.37531 | 19.40418 | 37292 ft | 459 kts | 126° |
| 2026-05-01 13:57 | 46.33863 | 19.46060 | 37274 ft | 459 kts | 125° |
| 2026-05-01 13:57 | 46.28735 | 19.53933 | 37303 ft | 457 kts | 125° |
| 2026-05-01 13:58 | 46.24339 | 19.60664 | 37282 ft | 458 kts | 126° |
| 2026-05-01 13:58 | 46.19918 | 19.67412 | 37298 ft | 462 kts | 126° |
| 2026-05-01 13:59 | 46.14865 | 19.73382 | 37324 ft | 472 kts | 138° |
| 2026-05-01 13:59 | 46.09497 | 19.78898 | 37260 ft | 470 kts | 137° |
| 2026-05-01 14:00 | 46.04165 | 19.84388 | 37306 ft | 469 kts | 138° |
| 2026-05-01 14:00 | 45.98836 | 19.89857 | 37292 ft | 469 kts | 138° |
| 2026-05-01 14:01 | 45.93507 | 19.95316 | 37272 ft | 470 kts | 138° |
| 2026-05-01 14:01 | 45.88117 | 20.00824 | 37278 ft | 472 kts | 138° |
| 2026-05-01 14:02 | 45.82755 | 20.06289 | 37278 ft | 472 kts | 138° |
| 2026-05-01 14:02 | 45.77362 | 20.11773 | 37273 ft | 473 kts | 138° |
| 2026-05-01 14:03 | 45.71967 | 20.17244 | 37270 ft | 473 kts | 139° |
| 2026-05-01 14:03 | 45.66583 | 20.22690 | 37261 ft | 472 kts | 139° |
| 2026-05-01 14:04 | 45.61174 | 20.28155 | 37268 ft | 475 kts | 139° |
| 2026-05-01 14:04 | 45.56673 | 20.32686 | 37268 ft | 474 kts | 139° |
| 2026-05-01 14:05 | 45.50359 | 20.39032 | 37253 ft | 473 kts | 139° |
| 2026-05-01 14:05 | 45.44943 | 20.44459 | 37248 ft | 472 kts | 139° |
| 2026-05-01 14:06 | 45.39525 | 20.49878 | 37258 ft | 475 kts | 139° |
| 2026-05-01 14:06 | 45.34078 | 20.55309 | 37257 ft | 473 kts | 140° |
| 2026-05-01 14:07 | 45.28682 | 20.60680 | 37247 ft | 475 kts | 140° |
| 2026-05-01 14:08 | 45.20502 | 20.68794 | 37250 ft | 475 kts | 141° |
| 2026-05-01 14:08 | 45.15054 | 20.74183 | 37263 ft | 474 kts | 141° |
| 2026-05-01 14:09 | 45.09619 | 20.79547 | 37258 ft | 476 kts | 141° |
| 2026-05-01 14:09 | 45.04131 | 20.84950 | 37256 ft | 476 kts | 141° |
| 2026-05-01 14:10 | 44.98664 | 20.90315 | 37255 ft | 474 kts | 141° |
| 2026-05-01 14:10 | 44.93213 | 20.95659 | 37259 ft | 475 kts | 141° |
| 2026-05-01 14:11 | 44.87745 | 21.01003 | 37254 ft | 476 kts | 142° |
| 2026-05-01 14:11 | 44.79539 | 21.09003 | 37241 ft | 477 kts | 142° |
| 2026-05-01 14:12 | 44.74029 | 21.14357 | 37248 ft | 477 kts | 142° |
| 2026-05-01 14:12 | 44.68557 | 21.19660 | 37248 ft | 477 kts | 142° |
| 2026-05-01 14:13 | 44.63952 | 21.24118 | 37247 ft | 478 kts | 142° |
| 2026-05-01 14:13 | 44.57529 | 21.30315 | 37253 ft | 479 kts | 142° |
| 2026-05-01 14:14 | 44.52016 | 21.35622 | 37246 ft | 479 kts | 142° |
| 2026-05-01 14:14 | 44.46475 | 21.40944 | 37247 ft | 479 kts | 142° |
| 2026-05-01 14:15 | 44.40978 | 21.46213 | 37245 ft | 479 kts | 143° |
| 2026-05-01 14:15 | 44.35421 | 21.51525 | 37238 ft | 479 kts | 143° |
| 2026-05-01 14:16 | 44.29894 | 21.56796 | 37240 ft | 480 kts | 143° |
| 2026-05-01 14:16 | 44.24345 | 21.62076 | 37233 ft | 481 kts | 143° |
| 2026-05-01 14:17 | 44.18802 | 21.67338 | 37232 ft | 480 kts | 144° |
| 2026-05-01 14:17 | 44.13249 | 21.72597 | 37216 ft | 481 kts | 144° |
| 2026-05-01 14:18 | 44.07660 | 21.77878 | 37218 ft | 481 kts | 144° |
| 2026-05-01 14:18 | 44.02999 | 21.82273 | 37211 ft | 481 kts | 144° |
| 2026-05-01 14:19 | 43.96511 | 21.88376 | 37219 ft | 481 kts | 144° |
| 2026-05-01 14:19 | 43.90922 | 21.93621 | 37224 ft | 482 kts | 144° |
| 2026-05-01 14:20 | 43.82560 | 22.01446 | 37221 ft | 482 kts | 145° |
| 2026-05-01 14:21 | 43.76949 | 22.06680 | 37215 ft | 482 kts | 145° |
| 2026-05-01 14:21 | 43.71360 | 22.11883 | 37208 ft | 481 kts | 145° |
| 2026-05-01 14:22 | 43.62968 | 22.19672 | 37213 ft | 482 kts | 145° |
| 2026-05-01 14:22 | 43.57359 | 22.24864 | 37210 ft | 482 kts | 145° |
| 2026-05-01 14:23 | 43.51756 | 22.30039 | 37210 ft | 483 kts | 145° |
| 2026-05-01 14:23 | 43.46137 | 22.35216 | 37203 ft | 482 kts | 145° |
| 2026-05-01 14:24 | 43.40563 | 22.40340 | 37197 ft | 481 kts | 146° |
| 2026-05-01 14:24 | 43.34958 | 22.45480 | 37202 ft | 482 kts | 146° |
| 2026-05-01 14:25 | 43.29351 | 22.50610 | 37200 ft | 482 kts | 146° |
| 2026-05-01 14:25 | 43.23736 | 22.55738 | 37207 ft | 483 kts | 146° |
| 2026-05-01 14:26 | 43.15316 | 22.63405 | 37199 ft | 482 kts | 146° |
| 2026-05-01 14:27 | 43.09700 | 22.68505 | 37198 ft | 481 kts | 147° |
| 2026-05-01 14:27 | 43.04099 | 22.73577 | 37204 ft | 482 kts | 147° |
| 2026-05-01 14:28 | 42.95697 | 22.81199 | 37206 ft | 483 kts | 147° |
| 2026-05-01 14:28 | 42.90061 | 22.86343 | 37203 ft | 484 kts | 147° |
| 2026-05-01 14:29 | 42.84449 | 22.91462 | 37193 ft | 482 kts | 147° |
| 2026-05-01 14:30 | 42.73207 | 23.01684 | 37198 ft | 483 kts | 147° |
| 2026-05-01 14:31 | 42.64788 | 23.09309 | 37204 ft | 484 kts | 147° |
| 2026-05-01 14:31 | 42.59134 | 23.14415 | 37205 ft | 485 kts | 147° |
| 2026-05-01 14:32 | 42.53505 | 23.19486 | 37196 ft | 484 kts | 147° |
| 2026-05-01 14:32 | 42.47859 | 23.24564 | 37163 ft | 485 kts | 147° |
| 2026-05-01 14:33 | 42.42207 | 23.29635 | 37153 ft | 485 kts | 147° |
| 2026-05-01 14:33 | 42.36554 | 23.34696 | 37144 ft | 485 kts | 148° |
| 2026-05-01 14:34 | 42.30880 | 23.39764 | 37120 ft | 485 kts | 148° |
| 2026-05-01 14:34 | 42.25145 | 23.44514 | 37122 ft | 482 kts | 157° |
| 2026-05-01 14:35 | 42.18720 | 23.46968 | 37140 ft | 475 kts | 176° |
| 2026-05-01 14:35 | 42.12127 | 23.47463 | 37128 ft | 474 kts | 180° |
| 2026-05-01 14:36 | 42.05514 | 23.47945 | 37127 ft | 474 kts | 176° |
| 2026-05-01 14:36 | 41.99084 | 23.50372 | 37133 ft | 482 kts | 157° |
| 2026-05-01 14:37 | 41.93461 | 23.55437 | 37109 ft | 489 kts | 138° |
| 2026-05-01 14:37 | 41.88303 | 23.61352 | 37088 ft | 486 kts | 149° |
| 2026-05-01 14:38 | 41.82514 | 23.66243 | 37083 ft | 487 kts | 150° |
| 2026-05-01 14:38 | 41.76804 | 23.71115 | 37092 ft | 484 kts | 150° |
| 2026-05-01 14:39 | 41.71100 | 23.75979 | 37115 ft | 485 kts | 150° |
| 2026-05-01 14:39 | 41.65336 | 23.80884 | 37126 ft | 487 kts | 150° |
| 2026-05-01 14:40 | 41.59600 | 23.85753 | 37135 ft | 486 kts | 150° |
| 2026-05-01 14:40 | 41.53820 | 23.90651 | 37150 ft | 487 kts | 150° |
| 2026-05-01 14:41 | 41.48094 | 23.95494 | 37167 ft | 487 kts | 150° |
| 2026-05-01 14:41 | 41.42332 | 24.00355 | 37170 ft | 487 kts | 150° |
| 2026-05-01 14:42 | 41.36556 | 24.05218 | 37174 ft | 486 kts | 150° |
| 2026-05-01 14:42 | 41.30827 | 24.10031 | 37166 ft | 487 kts | 150° |
| 2026-05-01 14:43 | 41.25060 | 24.14865 | 37167 ft | 489 kts | 150° |
| 2026-05-01 14:43 | 41.19274 | 24.19707 | 37172 ft | 488 kts | 151° |
| 2026-05-01 14:44 | 41.13511 | 24.24519 | 37180 ft | 487 kts | 151° |
| 2026-05-01 14:44 | 41.04847 | 24.31732 | 37193 ft | 487 kts | 151° |
| 2026-05-01 14:45 | 40.96218 | 24.38894 | 37206 ft | 487 kts | 151° |
| 2026-05-01 14:46 | 40.90449 | 24.43670 | 37202 ft | 488 kts | 151° |
| 2026-05-01 14:46 | 40.81762 | 24.50843 | 37199 ft | 488 kts | 152° |
| 2026-05-01 14:47 | 40.75990 | 24.55596 | 37206 ft | 487 kts | 152° |
| 2026-05-01 14:48 | 40.67328 | 24.62711 | 37202 ft | 488 kts | 152° |
| 2026-05-01 14:48 | 40.58684 | 24.69790 | 37198 ft | 487 kts | 153° |
| 2026-05-01 14:49 | 40.47114 | 24.79231 | 37179 ft | 488 kts | 153° |
| 2026-05-01 14:50 | 40.35502 | 24.88667 | 37193 ft | 487 kts | 153° |
| 2026-05-01 14:51 | 40.26800 | 24.95713 | 37178 ft | 488 kts | 153° |
| 2026-05-01 14:52 | 40.18089 | 25.02743 | 37191 ft | 488 kts | 153° |
| 2026-05-01 14:53 | 40.09347 | 25.09778 | 37175 ft | 487 kts | 154° |
| 2026-05-01 14:53 | 40.03565 | 25.14420 | 37187 ft | 488 kts | 154° |
| 2026-05-01 14:54 | 39.97769 | 25.19062 | 37181 ft | 487 kts | 154° |
| 2026-05-01 14:54 | 39.91920 | 25.23805 | 37181 ft | 491 kts | 150° |
| 2026-05-01 14:55 | 39.86626 | 25.29662 | 37172 ft | 498 kts | 144° |
| 2026-05-01 14:55 | 39.81399 | 25.35557 | 37179 ft | 498 kts | 144° |
| 2026-05-01 14:56 | 39.76133 | 25.41452 | 37171 ft | 500 kts | 144° |
| 2026-05-01 14:56 | 39.70818 | 25.47386 | 37169 ft | 499 kts | 144° |
| 2026-05-01 14:57 | 39.65533 | 25.53275 | 37164 ft | 499 kts | 144° |
| 2026-05-01 14:57 | 39.57617 | 25.62072 | 37147 ft | 499 kts | 144° |
| 2026-05-01 14:58 | 39.52328 | 25.67936 | 37137 ft | 499 kts | 146° |
| 2026-05-01 14:58 | 39.47006 | 25.73822 | 37144 ft | 501 kts | 146° |
| 2026-05-01 14:59 | 39.41689 | 25.79693 | 37139 ft | 501 kts | 146° |
| 2026-05-01 14:59 | 39.36369 | 25.85552 | 37130 ft | 500 kts | 146° |
| 2026-05-01 15:00 | 39.28345 | 25.94370 | 37121 ft | 501 kts | 146° |
| 2026-05-01 15:01 | 39.22990 | 26.00239 | 37121 ft | 503 kts | 146° |
| 2026-05-01 15:01 | 39.20316 | 26.03165 | 36961 ft | 503 kts | 146° |
| 2026-05-01 15:01 | 39.17630 | 26.06101 | 37114 ft | 501 kts | 146° |
| 2026-05-01 15:01 | 39.14935 | 26.09038 | 37004 ft | 507 kts | 146° |
| 2026-05-01 15:02 | 39.12229 | 26.11996 | 37114 ft | 504 kts | 146° |
| 2026-05-01 15:02 | 39.06860 | 26.17841 | 37111 ft | 506 kts | 146° |
| 2026-05-01 15:03 | 39.01465 | 26.23707 | 37097 ft | 504 kts | 147° |
| 2026-05-01 15:03 | 38.96135 | 26.29485 | 37101 ft | 504 kts | 147° |
| 2026-05-01 15:04 | 38.90709 | 26.35359 | 37083 ft | 507 kts | 147° |
| 2026-05-01 15:04 | 38.85286 | 26.41217 | 37083 ft | 506 kts | 147° |
| 2026-05-01 15:05 | 38.79558 | 26.46231 | 37103 ft | 494 kts | 159° |
| 2026-05-01 15:05 | 38.73518 | 26.50726 | 37068 ft | 495 kts | 158° |
| 2026-05-01 15:06 | 38.67600 | 26.55171 | 37075 ft | 495 kts | 158° |
| 2026-05-01 15:06 | 38.61623 | 26.59652 | 37063 ft | 496 kts | 158° |
| 2026-05-01 15:07 | 38.55666 | 26.64127 | 37060 ft | 488 kts | 157° |
| 2026-05-01 15:07 | 38.49770 | 26.68531 | 36993 ft | 488 kts | 159° |
| 2026-05-01 15:08 | 38.43811 | 26.72964 | 37034 ft | 500 kts | 158° |
| 2026-05-01 15:08 | 38.37664 | 26.77541 | 37011 ft | 505 kts | 158° |
| 2026-05-01 15:09 | 38.31606 | 26.82043 | 37009 ft | 498 kts | 159° |
| 2026-05-01 15:09 | 38.25598 | 26.86495 | 37005 ft | 497 kts | 159° |
| 2026-05-01 15:10 | 38.19582 | 26.90950 | 37010 ft | 498 kts | 159° |
| 2026-05-01 15:10 | 38.10501 | 26.97653 | 36997 ft | 500 kts | 159° |
| 2026-05-01 15:11 | 38.01411 | 27.04343 | 36989 ft | 501 kts | 159° |
| 2026-05-01 15:12 | 37.95355 | 27.08791 | 36987 ft | 499 kts | 159° |
| 2026-05-01 15:12 | 37.86237 | 27.15469 | 36994 ft | 502 kts | 159° |
| 2026-05-01 15:14 | 37.71088 | 27.26527 | 36993 ft | 500 kts | 159° |
| 2026-05-01 15:14 | 37.61953 | 27.33169 | 36979 ft | 500 kts | 159° |
| 2026-05-01 15:15 | 37.49794 | 27.41977 | 36977 ft | 500 kts | 159° |
| 2026-05-01 15:16 | 37.37651 | 27.50741 | 36971 ft | 502 kts | 159° |
| 2026-05-01 15:18 | 37.22173 | 27.60772 | 36978 ft | 492 kts | 166° |
| 2026-05-01 15:19 | 37.09525 | 27.67609 | 36960 ft | 492 kts | 167° |
| 2026-05-01 15:19 | 37.00044 | 27.72725 | 36951 ft | 491 kts | 166° |
| 2026-05-01 15:20 | 36.90543 | 27.77838 | 36952 ft | 492 kts | 166° |
| 2026-05-01 15:21 | 36.84219 | 27.81235 | 36948 ft | 491 kts | 167° |
| 2026-05-01 15:21 | 36.77913 | 27.84613 | 36945 ft | 490 kts | 167° |
| 2026-05-01 15:22 | 36.68406 | 27.89668 | 36933 ft | 492 kts | 167° |
| 2026-05-01 15:22 | 36.62057 | 27.92976 | 36924 ft | 492 kts | 167° |
| 2026-05-01 15:23 | 36.55682 | 27.96293 | 36931 ft | 493 kts | 167° |
| 2026-05-01 15:23 | 36.49382 | 27.99864 | 36917 ft | 507 kts | 156° |
| 2026-05-01 15:24 | 36.46506 | 28.02601 | 36944 ft | 520 kts | 143° |
| 2026-05-01 15:24 | 36.43986 | 28.05866 | 36953 ft | 523 kts | 140° |
| 2026-05-01 15:24 | 36.38785 | 28.12206 | 36935 ft | 521 kts | 143° |
| 2026-05-01 15:25 | 36.33516 | 28.18467 | 36934 ft | 520 kts | 143° |
| 2026-05-01 15:25 | 36.28226 | 28.24724 | 36933 ft | 521 kts | 143° |
| 2026-05-01 15:26 | 36.22942 | 28.30962 | 36931 ft | 521 kts | 143° |
| 2026-05-01 15:26 | 36.17690 | 28.37149 | 36930 ft | 520 kts | 143° |
| 2026-05-01 15:27 | 36.12376 | 28.43399 | 36931 ft | 523 kts | 143° |
| 2026-05-01 15:28 | 36.04454 | 28.52691 | 36935 ft | 520 kts | 143° |
| 2026-05-01 15:28 | 35.99175 | 28.58872 | 36940 ft | 521 kts | 143° |